sensor_id;sensor_type;location;lat;lon;timestamp;P1;P2;P0
44674;PMS5003;30388;52.038;-1.478;2023-02-19T00:01:45;2;2;
44674;PMS5003;30388;52.038;-1.478;2023-02-19T00:04:13;1;1;
44674;PMS5003;30388;52.038;-1.478;2023-02-19T00:06:43;11;10;
44674;PMS5003;30388;52.038;-1.478;2023-02-19T00:09:12;2;2;
44674;PMS5003;30388;52.038;-1.478;2023-02-19T00:11:45;1;1;
44674;PMS5003;30388;52.038;-1.478;2023-02-19T00:14:14;1;1;
44674;PMS5003;30388;52.038;-1.478;2023-02-19T00:16:43;2;1;
44674;PMS5003;30388;52.038;-1.478;2023-02-19T00:19:11;2;2;
44674;PMS5003;30388;52.038;-1.478;2023-02-19T00:21:40;1;1;
44674;PMS5003;30388;52.038;-1.478;2023-02-19T00:24:09;2;2;
44674;PMS5003;30388;52.038;-1.478;2023-02-19T00:26:39;1;1;
44674;PMS5003;30388;52.038;-1.478;2023-02-19T00:29:08;1;1;
44674;PMS5003;30388;52.038;-1.478;2023-02-19T00:31:37;1;1;
44674;PMS5003;30388;52.038;-1.478;2023-02-19T00:34:05;2;2;
44674;PMS5003;30388;52.038;-1.478;2023-02-19T00:36:33;1;1;
44674;PMS5003;30388;52.038;-1.478;2023-02-19T00:39:02;1;1;
44674;PMS5003;30388;52.038;-1.478;2023-02-19T00:41:31;2;1;
44674;PMS5003;30388;52.038;-1.478;2023-02-19T00:43:59;0;0;
44674;PMS5003;30388;52.038;-1.478;2023-02-19T00:46:30;2;2;
44674;PMS5003;30388;52.038;-1.478;2023-02-19T00:49:01;2;0;
44674;PMS5003;30388;52.038;-1.478;2023-02-19T00:51:30;1;1;
44674;PMS5003;30388;52.038;-1.478;2023-02-19T00:53:59;1;1;
44674;PMS5003;30388;52.038;-1.478;2023-02-19T00:56:27;1;1;
44674;PMS5003;30388;52.038;-1.478;2023-02-19T00:58:54;1;1;
44674;PMS5003;30388;52.038;-1.478;2023-02-19T01:01:23;0;0;
44674;PMS5003;30388;52.038;-1.478;2023-02-19T01:03:50;3;1;
44674;PMS5003;30388;52.038;-1.478;2023-02-19T01:06:18;1;1;
44674;PMS5003;30388;52.038;-1.478;2023-02-19T01:08:47;0;0;
44674;PMS5003;30388;52.038;-1.478;2023-02-19T01:11:15;1;1;
44674;PMS5003;30388;52.038;-1.478;2023-02-19T01:13:43;2;2;
44674;PMS5003;30388;52.038;-1.478;2023-02-19T01:16:11;2;2;
44674;PMS5003;30388;52.038;-1.478;2023-02-19T01:18:43;1;1;
44674;PMS5003;30388;52.038;-1.478;2023-02-19T01:21:12;2;2;
44674;PMS5003;30388;52.038;-1.478;2023-02-19T01:23:41;3;2;
44674;PMS5003;30388;52.038;-1.478;2023-02-19T01:26:11;2;1;
44674;PMS5003;30388;52.038;-1.478;2023-02-19T01:28:39;1;1;
44674;PMS5003;30388;52.038;-1.478;2023-02-19T01:31:07;1;1;
44674;PMS5003;30388;52.038;-1.478;2023-02-19T01:33:41;1;1;
44674;PMS5003;30388;52.038;-1.478;2023-02-19T01:36:10;0;0;
44674;PMS5003;30388;52.038;-1.478;2023-02-19T01:38:38;1;1;
44674;PMS5003;30388;52.038;-1.478;2023-02-19T01:41:07;7;7;
44674;PMS5003;30388;52.038;-1.478;2023-02-19T01:43:53;0;0;
44674;PMS5003;30388;52.038;-1.478;2023-02-19T01:46:24;3;2;
44674;PMS5003;30388;52.038;-1.478;2023-02-19T01:48:52;0;0;
44674;PMS5003;30388;52.038;-1.478;2023-02-19T01:51:21;1;1;
44674;PMS5003;30388;52.038;-1.478;2023-02-19T01:53:50;3;2;
44674;PMS5003;30388;52.038;-1.478;2023-02-19T01:56:21;2;2;
44674;PMS5003;30388;52.038;-1.478;2023-02-19T01:58:50;3;1;
44674;PMS5003;30388;52.038;-1.478;2023-02-19T02:01:21;2;2;
44674;PMS5003;30388;52.038;-1.478;2023-02-19T02:03:48;0;0;
44674;PMS5003;30388;52.038;-1.478;2023-02-19T02:06:16;1;1;
44674;PMS5003;30388;52.038;-1.478;2023-02-19T02:08:49;2;1;
44674;PMS5003;30388;52.038;-1.478;2023-02-19T02:11:18;3;1;
44674;PMS5003;30388;52.038;-1.478;2023-02-19T02:13:47;1;1;
44674;PMS5003;30388;52.038;-1.478;2023-02-19T02:16:18;1;1;
44674;PMS5003;30388;52.038;-1.478;2023-02-19T02:18:55;1;0;
44674;PMS5003;30388;52.038;-1.478;2023-02-19T02:21:39;1;1;
44674;PMS5003;30388;52.038;-1.478;2023-02-19T02:24:34;3;3;
44674;PMS5003;30388;52.038;-1.478;2023-02-19T02:27:27;1;1;
44674;PMS5003;30388;52.038;-1.478;2023-02-19T02:30:08;1;1;
44674;PMS5003;30388;52.038;-1.478;2023-02-19T02:32:55;1;1;
44674;PMS5003;30388;52.038;-1.478;2023-02-19T02:35:29;2;1;
44674;PMS5003;30388;52.038;-1.478;2023-02-19T02:38:02;3;0;
44674;PMS5003;30388;52.038;-1.478;2023-02-19T02:40:33;2;2;
44674;PMS5003;30388;52.038;-1.478;2023-02-19T02:43:01;1;1;
44674;PMS5003;30388;52.038;-1.478;2023-02-19T02:45:29;3;1;
44674;PMS5003;30388;52.038;-1.478;2023-02-19T02:47:58;0;0;
44674;PMS5003;30388;52.038;-1.478;2023-02-19T02:50:29;3;1;
44674;PMS5003;30388;52.038;-1.478;2023-02-19T02:53:06;2;2;
44674;PMS5003;30388;52.038;-1.478;2023-02-19T02:55:40;0;0;
44674;PMS5003;30388;52.038;-1.478;2023-02-19T02:58:09;1;1;
44674;PMS5003;30388;52.038;-1.478;2023-02-19T03:00:38;1;1;
44674;PMS5003;30388;52.038;-1.478;2023-02-19T03:03:08;1;1;
44674;PMS5003;30388;52.038;-1.478;2023-02-19T03:05:35;2;2;
44674;PMS5003;30388;52.038;-1.478;2023-02-19T03:08:04;1;1;
44674;PMS5003;30388;52.038;-1.478;2023-02-19T03:10:34;1;1;
44674;PMS5003;30388;52.038;-1.478;2023-02-19T03:13:05;1;1;
44674;PMS5003;30388;52.038;-1.478;2023-02-19T03:15:36;1;1;
44674;PMS5003;30388;52.038;-1.478;2023-02-19T03:18:07;1;1;
44674;PMS5003;30388;52.038;-1.478;2023-02-19T03:20:39;0;0;
44674;PMS5003;30388;52.038;-1.478;2023-02-19T03:23:10;3;1;
44674;PMS5003;30388;52.038;-1.478;2023-02-19T03:25:39;1;1;
44674;PMS5003;30388;52.038;-1.478;2023-02-19T03:28:07;4;2;
44674;PMS5003;30388;52.038;-1.478;2023-02-19T03:30:36;0;0;
44674;PMS5003;30388;52.038;-1.478;2023-02-19T03:33:07;1;1;
44674;PMS5003;30388;52.038;-1.478;2023-02-19T03:35:39;0;0;
44674;PMS5003;30388;52.038;-1.478;2023-02-19T03:38:10;1;0;
44674;PMS5003;30388;52.038;-1.478;2023-02-19T03:40:43;0;0;
44674;PMS5003;30388;52.038;-1.478;2023-02-19T03:43:20;0;0;
44674;PMS5003;30388;52.038;-1.478;2023-02-19T03:45:54;2;1;
44674;PMS5003;30388;52.038;-1.478;2023-02-19T03:48:29;0;0;
44674;PMS5003;30388;52.038;-1.478;2023-02-19T03:51:04;0;0;
44674;PMS5003;30388;52.038;-1.478;2023-02-19T03:53:41;0;0;
44674;PMS5003;30388;52.038;-1.478;2023-02-19T03:56:18;0;0;
44674;PMS5003;30388;52.038;-1.478;2023-02-19T03:58:53;0;0;
44674;PMS5003;30388;52.038;-1.478;2023-02-19T04:01:27;0;0;
44674;PMS5003;30388;52.038;-1.478;2023-02-19T04:04:02;0;0;
44674;PMS5003;30388;52.038;-1.478;2023-02-19T04:06:34;1;1;
44674;PMS5003;30388;52.038;-1.478;2023-02-19T04:09:03;0;0;
44674;PMS5003;30388;52.038;-1.478;2023-02-19T04:11:34;0;0;
44674;PMS5003;30388;52.038;-1.478;2023-02-19T04:14:04;0;0;
44674;PMS5003;30388;52.038;-1.478;2023-02-19T04:16:36;0;0;
44674;PMS5003;30388;52.038;-1.478;2023-02-19T04:19:07;0;0;
44674;PMS5003;30388;52.038;-1.478;2023-02-19T04:21:38;0;0;
44674;PMS5003;30388;52.038;-1.478;2023-02-19T04:24:08;1;1;
44674;PMS5003;30388;52.038;-1.478;2023-02-19T04:26:40;0;0;
44674;PMS5003;30388;52.038;-1.478;2023-02-19T04:29:08;2;0;
44674;PMS5003;30388;52.038;-1.478;2023-02-19T04:31:35;4;4;
44674;PMS5003;30388;52.038;-1.478;2023-02-19T04:34:04;1;0;
44674;PMS5003;30388;52.038;-1.478;2023-02-19T04:36:31;0;0;
44674;PMS5003;30388;52.038;-1.478;2023-02-19T04:38:59;0;0;
44674;PMS5003;30388;52.038;-1.478;2023-02-19T04:41:26;0;0;
44674;PMS5003;30388;52.038;-1.478;2023-02-19T04:43:53;0;0;
44674;PMS5003;30388;52.038;-1.478;2023-02-19T04:46:20;2;1;
44674;PMS5003;30388;52.038;-1.478;2023-02-19T04:48:48;0;0;
44674;PMS5003;30388;52.038;-1.478;2023-02-19T04:51:15;1;1;
44674;PMS5003;30388;52.038;-1.478;2023-02-19T04:53:42;0;0;
44674;PMS5003;30388;52.038;-1.478;2023-02-19T04:56:10;0;0;
44674;PMS5003;30388;52.038;-1.478;2023-02-19T04:58:39;0;0;
44674;PMS5003;30388;52.038;-1.478;2023-02-19T05:01:07;0;0;
44674;PMS5003;30388;52.038;-1.478;2023-02-19T05:03:35;0;0;
44674;PMS5003;30388;52.038;-1.478;2023-02-19T05:06:03;0;0;
44674;PMS5003;30388;52.038;-1.478;2023-02-19T05:08:32;0;0;
44674;PMS5003;30388;52.038;-1.478;2023-02-19T05:10:59;0;0;
44674;PMS5003;30388;52.038;-1.478;2023-02-19T05:13:29;0;0;
44674;PMS5003;30388;52.038;-1.478;2023-02-19T05:15:57;0;0;
44674;PMS5003;30388;52.038;-1.478;2023-02-19T05:18:25;1;0;
44674;PMS5003;30388;52.038;-1.478;2023-02-19T05:20:53;2;0;
44674;PMS5003;30388;52.038;-1.478;2023-02-19T05:23:20;1;1;
44674;PMS5003;30388;52.038;-1.478;2023-02-19T05:25:47;0;0;
44674;PMS5003;30388;52.038;-1.478;2023-02-19T05:28:15;1;1;
44674;PMS5003;30388;52.038;-1.478;2023-02-19T05:30:42;2;1;
44674;PMS5003;30388;52.038;-1.478;2023-02-19T05:33:09;1;1;
44674;PMS5003;30388;52.038;-1.478;2023-02-19T05:35:39;1;1;
44674;PMS5003;30388;52.038;-1.478;2023-02-19T05:38:07;1;0;
44674;PMS5003;30388;52.038;-1.478;2023-02-19T05:40:35;1;0;
44674;PMS5003;30388;52.038;-1.478;2023-02-19T05:43:02;0;0;
44674;PMS5003;30388;52.038;-1.478;2023-02-19T05:45:30;1;1;
44674;PMS5003;30388;52.038;-1.478;2023-02-19T05:47:57;2;0;
44674;PMS5003;30388;52.038;-1.478;2023-02-19T05:50:24;1;1;
44674;PMS5003;30388;52.038;-1.478;2023-02-19T05:52:52;0;0;
44674;PMS5003;30388;52.038;-1.478;2023-02-19T05:55:19;1;1;
44674;PMS5003;30388;52.038;-1.478;2023-02-19T05:57:47;1;1;
44674;PMS5003;30388;52.038;-1.478;2023-02-19T06:00:15;1;0;
44674;PMS5003;30388;52.038;-1.478;2023-02-19T06:02:44;1;1;
44674;PMS5003;30388;52.038;-1.478;2023-02-19T06:05:12;0;0;
44674;PMS5003;30388;52.038;-1.478;2023-02-19T06:07:39;0;0;
44674;PMS5003;30388;52.038;-1.478;2023-02-19T06:10:06;1;1;
44674;PMS5003;30388;52.038;-1.478;2023-02-19T06:12:34;0;0;
44674;PMS5003;30388;52.038;-1.478;2023-02-19T06:15:02;1;1;
44674;PMS5003;30388;52.038;-1.478;2023-02-19T06:17:30;2;0;
44674;PMS5003;30388;52.038;-1.478;2023-02-19T06:19:58;0;0;
44674;PMS5003;30388;52.038;-1.478;2023-02-19T06:22:26;1;1;
44674;PMS5003;30388;52.038;-1.478;2023-02-19T06:24:53;0;0;
44674;PMS5003;30388;52.038;-1.478;2023-02-19T06:27:20;0;0;
44674;PMS5003;30388;52.038;-1.478;2023-02-19T06:29:48;0;0;
44674;PMS5003;30388;52.038;-1.478;2023-02-19T06:32:15;0;0;
44674;PMS5003;30388;52.038;-1.478;2023-02-19T06:34:42;1;1;
44674;PMS5003;30388;52.038;-1.478;2023-02-19T06:37:09;1;1;
44674;PMS5003;30388;52.038;-1.478;2023-02-19T06:39:37;2;2;
44674;PMS5003;30388;52.038;-1.478;2023-02-19T06:42:04;1;1;
44674;PMS5003;30388;52.038;-1.478;2023-02-19T06:44:31;1;1;
44674;PMS5003;30388;52.038;-1.478;2023-02-19T06:46:58;1;1;
44674;PMS5003;30388;52.038;-1.478;2023-02-19T06:49:26;4;2;
44674;PMS5003;30388;52.038;-1.478;2023-02-19T06:51:53;2;0;
44674;PMS5003;30388;52.038;-1.478;2023-02-19T06:54:20;2;2;
44674;PMS5003;30388;52.038;-1.478;2023-02-19T06:56:47;1;1;
44674;PMS5003;30388;52.038;-1.478;2023-02-19T06:59:15;1;1;
44674;PMS5003;30388;52.038;-1.478;2023-02-19T07:01:42;1;1;
44674;PMS5003;30388;52.038;-1.478;2023-02-19T07:04:10;0;0;
44674;PMS5003;30388;52.038;-1.478;2023-02-19T07:06:37;2;2;
44674;PMS5003;30388;52.038;-1.478;2023-02-19T07:09:05;2;2;
44674;PMS5003;30388;52.038;-1.478;2023-02-19T07:11:34;2;2;
44674;PMS5003;30388;52.038;-1.478;2023-02-19T07:14:04;3;3;
44674;PMS5003;30388;52.038;-1.478;2023-02-19T07:16:33;5;3;
44674;PMS5003;30388;52.038;-1.478;2023-02-19T07:19:01;2;2;
44674;PMS5003;30388;52.038;-1.478;2023-02-19T07:21:29;4;3;
44674;PMS5003;30388;52.038;-1.478;2023-02-19T07:23:56;6;6;
44674;PMS5003;30388;52.038;-1.478;2023-02-19T07:26:24;2;2;
44674;PMS5003;30388;52.038;-1.478;2023-02-19T07:28:51;1;1;
44674;PMS5003;30388;52.038;-1.478;2023-02-19T07:31:18;1;1;
44674;PMS5003;30388;52.038;-1.478;2023-02-19T07:33:48;2;0;
44674;PMS5003;30388;52.038;-1.478;2023-02-19T07:36:16;0;0;
44674;PMS5003;30388;52.038;-1.478;2023-02-19T07:38:45;1;1;
44674;PMS5003;30388;52.038;-1.478;2023-02-19T07:41:12;2;0;
44674;PMS5003;30388;52.038;-1.478;2023-02-19T07:43:39;2;1;
44674;PMS5003;30388;52.038;-1.478;2023-02-19T07:46:07;1;1;
44674;PMS5003;30388;52.038;-1.478;2023-02-19T07:48:36;2;1;
44674;PMS5003;30388;52.038;-1.478;2023-02-19T07:51:04;1;1;
44674;PMS5003;30388;52.038;-1.478;2023-02-19T07:53:33;0;0;
44674;PMS5003;30388;52.038;-1.478;2023-02-19T07:56:02;0;0;
44674;PMS5003;30388;52.038;-1.478;2023-02-19T07:58:32;1;1;
44674;PMS5003;30388;52.038;-1.478;2023-02-19T08:01:05;1;1;
44674;PMS5003;30388;52.038;-1.478;2023-02-19T08:03:34;0;0;
44674;PMS5003;30388;52.038;-1.478;2023-02-19T08:06:01;0;0;
44674;PMS5003;30388;52.038;-1.478;2023-02-19T08:08:29;1;1;
44674;PMS5003;30388;52.038;-1.478;2023-02-19T08:10:58;1;1;
44674;PMS5003;30388;52.038;-1.478;2023-02-19T08:13:26;2;2;
44674;PMS5003;30388;52.038;-1.478;2023-02-19T08:15:55;1;1;
44674;PMS5003;30388;52.038;-1.478;2023-02-19T08:18:34;1;1;
44674;PMS5003;30388;52.038;-1.478;2023-02-19T08:21:01;1;1;
44674;PMS5003;30388;52.038;-1.478;2023-02-19T08:23:29;2;0;
44674;PMS5003;30388;52.038;-1.478;2023-02-19T08:25:57;2;0;
44674;PMS5003;30388;52.038;-1.478;2023-02-19T08:28:26;0;0;
44674;PMS5003;30388;52.038;-1.478;2023-02-19T08:30:57;0;0;
44674;PMS5003;30388;52.038;-1.478;2023-02-19T08:33:26;0;0;
44674;PMS5003;30388;52.038;-1.478;2023-02-19T08:35:54;1;1;
44674;PMS5003;30388;52.038;-1.478;2023-02-19T08:38:21;1;1;
44674;PMS5003;30388;52.038;-1.478;2023-02-19T08:40:49;0;0;
44674;PMS5003;30388;52.038;-1.478;2023-02-19T08:43:16;0;0;
44674;PMS5003;30388;52.038;-1.478;2023-02-19T08:45:44;2;2;
44674;PMS5003;30388;52.038;-1.478;2023-02-19T08:48:11;3;3;
44674;PMS5003;30388;52.038;-1.478;2023-02-19T08:50:38;9;9;
44674;PMS5003;30388;52.038;-1.478;2023-02-19T08:53:05;2;2;
44674;PMS5003;30388;52.038;-1.478;2023-02-19T08:55:35;0;0;
44674;PMS5003;30388;52.038;-1.478;2023-02-19T08:58:03;2;0;
44674;PMS5003;30388;52.038;-1.478;2023-02-19T09:00:30;0;0;
44674;PMS5003;30388;52.038;-1.478;2023-02-19T09:02:57;2;0;
44674;PMS5003;30388;52.038;-1.478;2023-02-19T09:05:24;1;1;
44674;PMS5003;30388;52.038;-1.478;2023-02-19T09:07:51;0;0;
44674;PMS5003;30388;52.038;-1.478;2023-02-19T09:10:19;0;0;
44674;PMS5003;30388;52.038;-1.478;2023-02-19T09:12:46;0;0;
44674;PMS5003;30388;52.038;-1.478;2023-02-19T09:15:13;9;8;
44674;PMS5003;30388;52.038;-1.478;2023-02-19T09:17:40;4;3;
44674;PMS5003;30388;52.038;-1.478;2023-02-19T09:20:07;1;0;
44674;PMS5003;30388;52.038;-1.478;2023-02-19T09:22:35;0;0;
44674;PMS5003;30388;52.038;-1.478;2023-02-19T09:25:02;1;1;
44674;PMS5003;30388;52.038;-1.478;2023-02-19T09:27:30;1;1;
44674;PMS5003;30388;52.038;-1.478;2023-02-19T09:29:58;1;1;
44674;PMS5003;30388;52.038;-1.478;2023-02-19T09:32:25;1;1;
44674;PMS5003;30388;52.038;-1.478;2023-02-19T09:34:54;3;1;
44674;PMS5003;30388;52.038;-1.478;2023-02-19T09:37:24;1;1;
44674;PMS5003;30388;52.038;-1.478;2023-02-19T09:39:51;0;0;
44674;PMS5003;30388;52.038;-1.478;2023-02-19T09:42:19;8;6;
44674;PMS5003;30388;52.038;-1.478;2023-02-19T09:44:50;8;8;
44674;PMS5003;30388;52.038;-1.478;2023-02-19T09:47:21;70;70;
44674;PMS5003;30388;52.038;-1.478;2023-02-19T09:49:50;71;71;
44674;PMS5003;30388;52.038;-1.478;2023-02-19T09:52:23;111;111;
44674;PMS5003;30388;52.038;-1.478;2023-02-19T09:54:56;68;68;
44674;PMS5003;30388;52.038;-1.478;2023-02-19T09:57:26;38;38;
44674;PMS5003;30388;52.038;-1.478;2023-02-19T09:59:59;66;66;
44674;PMS5003;30388;52.038;-1.478;2023-02-19T10:02:31;63;62;
44674;PMS5003;30388;52.038;-1.478;2023-02-19T10:04:58;31;31;
44674;PMS5003;30388;52.038;-1.478;2023-02-19T10:07:29;54;54;
44674;PMS5003;30388;52.038;-1.478;2023-02-19T10:10:16;27;27;
44674;PMS5003;30388;52.038;-1.478;2023-02-19T10:12:50;34;34;
44674;PMS5003;30388;52.038;-1.478;2023-02-19T10:15:21;67;67;
44674;PMS5003;30388;52.038;-1.478;2023-02-19T10:17:52;61;61;
44674;PMS5003;30388;52.038;-1.478;2023-02-19T10:20:20;61;61;
44674;PMS5003;30388;52.038;-1.478;2023-02-19T10:22:50;72;72;
44674;PMS5003;30388;52.038;-1.478;2023-02-19T10:25:21;97;96;
44674;PMS5003;30388;52.038;-1.478;2023-02-19T10:27:48;61;59;
44674;PMS5003;30388;52.038;-1.478;2023-02-19T10:30:17;88;88;
44674;PMS5003;30388;52.038;-1.478;2023-02-19T10:32:57;78;76;
44674;PMS5003;30388;52.038;-1.478;2023-02-19T10:35:26;70;70;
44674;PMS5003;30388;52.038;-1.478;2023-02-19T10:37:54;73;73;
44674;PMS5003;30388;52.038;-1.478;2023-02-19T10:40:23;71;71;
44674;PMS5003;30388;52.038;-1.478;2023-02-19T10:42:53;71;71;
44674;PMS5003;30388;52.038;-1.478;2023-02-19T10:45:23;73;73;
44674;PMS5003;30388;52.038;-1.478;2023-02-19T10:47:55;74;71;
44674;PMS5003;30388;52.038;-1.478;2023-02-19T10:50:25;85;85;
44674;PMS5003;30388;52.038;-1.478;2023-02-19T10:52:55;61;61;
44674;PMS5003;30388;52.038;-1.478;2023-02-19T10:55:26;68;67;
44674;PMS5003;30388;52.038;-1.478;2023-02-19T10:57:57;89;85;
44674;PMS5003;30388;52.038;-1.478;2023-02-19T11:00:47;45;44;
44674;PMS5003;30388;52.038;-1.478;2023-02-19T11:03:35;60;60;
44674;PMS5003;30388;52.038;-1.478;2023-02-19T11:06:04;72;72;
44674;PMS5003;30388;52.038;-1.478;2023-02-19T11:08:38;78;78;
44674;PMS5003;30388;52.038;-1.478;2023-02-19T11:11:31;89;85;
44674;PMS5003;30388;52.038;-1.478;2023-02-19T11:14:02;64;63;
44674;PMS5003;30388;52.038;-1.478;2023-02-19T11:16:40;87;87;
44674;PMS5003;30388;52.038;-1.478;2023-02-19T11:19:27;84;84;
44674;PMS5003;30388;52.038;-1.478;2023-02-19T11:21:59;97;95;
44674;PMS5003;30388;52.038;-1.478;2023-02-19T11:24:29;92;92;
44674;PMS5003;30388;52.038;-1.478;2023-02-19T11:26:59;80;80;
44674;PMS5003;30388;52.038;-1.478;2023-02-19T11:29:29;88;87;
44674;PMS5003;30388;52.038;-1.478;2023-02-19T11:31:56;85;85;
44674;PMS5003;30388;52.038;-1.478;2023-02-19T11:34:49;87;87;
44674;PMS5003;30388;52.038;-1.478;2023-02-19T11:37:16;66;66;
44674;PMS5003;30388;52.038;-1.478;2023-02-19T11:39:46;77;77;
44674;PMS5003;30388;52.038;-1.478;2023-02-19T11:42:22;65;65;
44674;PMS5003;30388;52.038;-1.478;2023-02-19T11:44:59;82;82;
44674;PMS5003;30388;52.038;-1.478;2023-02-19T11:48:13;77;75;
44674;PMS5003;30388;52.038;-1.478;2023-02-19T11:50:59;104;104;
44674;PMS5003;30388;52.038;-1.478;2023-02-19T11:53:38;56;56;
44674;PMS5003;30388;52.038;-1.478;2023-02-19T11:56:14;47;47;
44674;PMS5003;30388;52.038;-1.478;2023-02-19T11:58:49;80;80;
44674;PMS5003;30388;52.038;-1.478;2023-02-19T12:01:25;60;60;
44674;PMS5003;30388;52.038;-1.478;2023-02-19T12:04:27;35;35;
44674;PMS5003;30388;52.038;-1.478;2023-02-19T12:07:11;33;33;
44674;PMS5003;30388;52.038;-1.478;2023-02-19T12:09:49;35;34;
44674;PMS5003;30388;52.038;-1.478;2023-02-19T12:12:31;37;37;
44674;PMS5003;30388;52.038;-1.478;2023-02-19T12:15:16;44;44;
44674;PMS5003;30388;52.038;-1.478;2023-02-19T12:17:56;27;27;
44674;PMS5003;30388;52.038;-1.478;2023-02-19T12:20:45;47;47;
44674;PMS5003;30388;52.038;-1.478;2023-02-19T12:23:28;29;29;
44674;PMS5003;30388;52.038;-1.478;2023-02-19T12:26:08;50;49;
44674;PMS5003;30388;52.038;-1.478;2023-02-19T12:28:51;30;30;
44674;PMS5003;30388;52.038;-1.478;2023-02-19T12:31:34;48;48;
44674;PMS5003;30388;52.038;-1.478;2023-02-19T12:34:15;105;105;
44674;PMS5003;30388;52.038;-1.478;2023-02-19T12:36:55;92;92;
44674;PMS5003;30388;52.038;-1.478;2023-02-19T12:39:32;48;48;
44674;PMS5003;30388;52.038;-1.478;2023-02-19T12:42:08;117;117;
44674;PMS5003;30388;52.038;-1.478;2023-02-19T12:44:44;132;132;
44674;PMS5003;30388;52.038;-1.478;2023-02-19T12:47:15;127;127;
44674;PMS5003;30388;52.038;-1.478;2023-02-19T12:49:47;137;137;
44674;PMS5003;30388;52.038;-1.478;2023-02-19T12:52:20;137;136;
44674;PMS5003;30388;52.038;-1.478;2023-02-19T12:54:52;148;148;
44674;PMS5003;30388;52.038;-1.478;2023-02-19T12:57:23;159;156;
44674;PMS5003;30388;52.038;-1.478;2023-02-19T12:59:56;154;153;
44674;PMS5003;30388;52.038;-1.478;2023-02-19T13:02:29;134;133;
44674;PMS5003;30388;52.038;-1.478;2023-02-19T13:05:09;139;134;
44674;PMS5003;30388;52.038;-1.478;2023-02-19T13:07:45;145;145;
44674;PMS5003;30388;52.038;-1.478;2023-02-19T13:10:24;145;145;
44674;PMS5003;30388;52.038;-1.478;2023-02-19T13:12:57;165;165;
44674;PMS5003;30388;52.038;-1.478;2023-02-19T13:15:32;169;169;
44674;PMS5003;30388;52.038;-1.478;2023-02-19T13:18:06;188;171;
44674;PMS5003;30388;52.038;-1.478;2023-02-19T13:20:41;185;178;
44674;PMS5003;30388;52.038;-1.478;2023-02-19T13:23:11;171;171;
44674;PMS5003;30388;52.038;-1.478;2023-02-19T13:25:50;160;160;
44674;PMS5003;30388;52.038;-1.478;2023-02-19T13:28:36;181;179;
44674;PMS5003;30388;52.038;-1.478;2023-02-19T13:31:21;160;160;
44674;PMS5003;30388;52.038;-1.478;2023-02-19T13:34:00;182;182;
44674;PMS5003;30388;52.038;-1.478;2023-02-19T13:36:45;183;183;
44674;PMS5003;30388;52.038;-1.478;2023-02-19T13:39:15;188;186;
44674;PMS5003;30388;52.038;-1.478;2023-02-19T13:41:48;189;189;
44674;PMS5003;30388;52.038;-1.478;2023-02-19T13:44:18;205;199;
44674;PMS5003;30388;52.038;-1.478;2023-02-19T13:46:50;195;195;
44674;PMS5003;30388;52.038;-1.478;2023-02-19T13:49:49;184;184;
44674;PMS5003;30388;52.038;-1.478;2023-02-19T13:52:37;196;196;
44674;PMS5003;30388;52.038;-1.478;2023-02-19T13:56:34;186;186;
44674;PMS5003;30388;52.038;-1.478;2023-02-19T13:59:37;190;188;
44674;PMS5003;30388;52.038;-1.478;2023-02-19T14:02:10;200;199;
44674;PMS5003;30388;52.038;-1.478;2023-02-19T14:04:49;216;216;
44674;PMS5003;30388;52.038;-1.478;2023-02-19T14:07:20;209;209;
44674;PMS5003;30388;52.038;-1.478;2023-02-19T14:10:03;196;196;
44674;PMS5003;30388;52.038;-1.478;2023-02-19T14:12:37;221;221;
44674;PMS5003;30388;52.038;-1.478;2023-02-19T14:16:15;196;196;
44674;PMS5003;30388;52.038;-1.478;2023-02-19T14:18:54;195;195;
44674;PMS5003;30388;52.038;-1.478;2023-02-19T14:21:22;194;194;
44674;PMS5003;30388;52.038;-1.478;2023-02-19T14:23:51;231;231;
44674;PMS5003;30388;52.038;-1.478;2023-02-19T14:26:21;198;198;
44674;PMS5003;30388;52.038;-1.478;2023-02-19T14:28:49;183;183;
44674;PMS5003;30388;52.038;-1.478;2023-02-19T14:31:22;193;192;
44674;PMS5003;30388;52.038;-1.478;2023-02-19T14:33:53;199;188;
44674;PMS5003;30388;52.038;-1.478;2023-02-19T14:36:25;195;195;
44674;PMS5003;30388;52.038;-1.478;2023-02-19T14:39:00;223;223;
44674;PMS5003;30388;52.038;-1.478;2023-02-19T14:41:31;162;162;
44674;PMS5003;30388;52.038;-1.478;2023-02-19T14:44:02;197;197;
44674;PMS5003;30388;52.038;-1.478;2023-02-19T14:46:33;164;164;
44674;PMS5003;30388;52.038;-1.478;2023-02-19T14:49:04;162;162;
44674;PMS5003;30388;52.038;-1.478;2023-02-19T14:51:40;164;164;
44674;PMS5003;30388;52.038;-1.478;2023-02-19T14:54:13;189;188;
44674;PMS5003;30388;52.038;-1.478;2023-02-19T14:56:43;180;180;
44674;PMS5003;30388;52.038;-1.478;2023-02-19T14:59:21;177;177;
44674;PMS5003;30388;52.038;-1.478;2023-02-19T15:01:54;192;192;
44674;PMS5003;30388;52.038;-1.478;2023-02-19T15:04:23;184;184;
44674;PMS5003;30388;52.038;-1.478;2023-02-19T15:06:52;202;202;
44674;PMS5003;30388;52.038;-1.478;2023-02-19T15:09:23;201;200;
44674;PMS5003;30388;52.038;-1.478;2023-02-19T15:11:55;207;207;
44674;PMS5003;30388;52.038;-1.478;2023-02-19T15:14:23;193;193;
44674;PMS5003;30388;52.038;-1.478;2023-02-19T15:16:52;188;188;
44674;PMS5003;30388;52.038;-1.478;2023-02-19T15:19:23;184;184;
44674;PMS5003;30388;52.038;-1.478;2023-02-19T15:21:51;187;187;
44674;PMS5003;30388;52.038;-1.478;2023-02-19T15:24:18;203;191;
44674;PMS5003;30388;52.038;-1.478;2023-02-19T15:26:47;192;192;
44674;PMS5003;30388;52.038;-1.478;2023-02-19T15:29:16;187;187;
44674;PMS5003;30388;52.038;-1.478;2023-02-19T15:31:45;217;217;
44674;PMS5003;30388;52.038;-1.478;2023-02-19T15:34:14;219;219;
44674;PMS5003;30388;52.038;-1.478;2023-02-19T15:36:44;250;250;
44674;PMS5003;30388;52.038;-1.478;2023-02-19T15:39:15;255;255;
44674;PMS5003;30388;52.038;-1.478;2023-02-19T15:41:49;210;209;
44674;PMS5003;30388;52.038;-1.478;2023-02-19T15:44:26;197;197;
44674;PMS5003;30388;52.038;-1.478;2023-02-19T15:47:03;192;190;
44674;PMS5003;30388;52.038;-1.478;2023-02-19T15:49:38;200;200;
44674;PMS5003;30388;52.038;-1.478;2023-02-19T15:52:11;195;195;
44674;PMS5003;30388;52.038;-1.478;2023-02-19T15:54:47;190;190;
44674;PMS5003;30388;52.038;-1.478;2023-02-19T15:57:21;181;181;
44674;PMS5003;30388;52.038;-1.478;2023-02-19T15:59:55;148;148;
44674;PMS5003;30388;52.038;-1.478;2023-02-19T16:02:27;144;141;
44674;PMS5003;30388;52.038;-1.478;2023-02-19T16:04:54;150;150;
44674;PMS5003;30388;52.038;-1.478;2023-02-19T16:07:23;146;145;
44674;PMS5003;30388;52.038;-1.478;2023-02-19T16:10:23;159;159;
44674;PMS5003;30388;52.038;-1.478;2023-02-19T16:12:54;146;146;
44674;PMS5003;30388;52.038;-1.478;2023-02-19T16:15:22;158;157;
44674;PMS5003;30388;52.038;-1.478;2023-02-19T16:17:50;154;154;
44674;PMS5003;30388;52.038;-1.478;2023-02-19T16:20:19;154;153;
44674;PMS5003;30388;52.038;-1.478;2023-02-19T16:22:48;155;155;
44674;PMS5003;30388;52.038;-1.478;2023-02-19T16:25:23;145;145;
44674;PMS5003;30388;52.038;-1.478;2023-02-19T16:27:53;65;65;
44674;PMS5003;30388;52.038;-1.478;2023-02-19T16:30:25;96;95;
44674;PMS5003;30388;52.038;-1.478;2023-02-19T16:33:32;47;46;
44674;PMS5003;30388;52.038;-1.478;2023-02-19T16:36:18;20;20;
44674;PMS5003;30388;52.038;-1.478;2023-02-19T16:39:11;16;15;
44674;PMS5003;30388;52.038;-1.478;2023-02-19T16:41:57;50;50;
44674;PMS5003;30388;52.038;-1.478;2023-02-19T16:44:38;18;18;
44674;PMS5003;30388;52.038;-1.478;2023-02-19T16:47:09;5;5;